Time;durP1;ratioP1;P1;durP2;ratioP2;P2;SDS_P1;SDS_P2;PMS_P1;PMS_P2;Temp;Humidity;BMP_temperature;BMP_pressure;BME280_temperature;BME280_humidity;BME280_pressure;Samples;Min_cycle;Max_cycle;Signal;HPM_P1;HPM_P2
2023/06/01 00:00:33;;;;;;;;;;;15.80;80.60;;;;;;5069462;28;20052;-74
2023/06/01 00:02:59;;;;;;;11.38;2.33;;;15.70;80.40;;;;;;5068586;28;19940;-75
2023/06/01 00:05:24;;;;;;;4.15;1.45;;;15.70;81.50;;;;;;5069052;28;20488;-75
2023/06/01 00:07:50;;;;;;;6.82;1.88;;;15.70;80.70;;;;;;5068954;28;20021;-74
2023/06/01 00:10:16;;;;;;;8.90;1.80;;;15.70;81.00;;;;;;5068879;28;20028;-74
2023/06/01 00:12:42;;;;;;;;;;;15.70;82.10;;;;;;5068187;28;20057;-75
2023/06/01 00:15:09;;;;;;;5.95;2.15;;;15.70;82.80;;;;;;5068668;28;20000;-75
2023/06/01 00:17:35;;;;;;;6.22;1.88;;;15.70;82.10;;;;;;5068724;28;20036;-75
2023/06/01 00:20:01;;;;;;;11.93;3.80;;;15.70;81.60;;;;;;5068976;28;20075;-75
2023/06/01 00:22:34;;;;;;;;;;;15.70;80.00;;;;;;5069412;28;20028;-75
2023/06/01 00:25:00;;;;;;;9.02;2.90;;;15.70;78.90;;;;;;5068807;28;19996;-74
2023/06/01 00:27:26;;;;;;;3.90;2.00;;;15.70;79.70;;;;;;5068712;28;20036;-75
2023/06/01 00:29:51;;;;;;;;;;;15.70;79.60;;;;;;5069217;28;20085;-75
2023/06/01 00:32:17;;;;;;;5.95;1.92;;;15.70;83.70;;;;;;5068895;28;19950;-75
2023/06/01 00:34:42;;;;;;;9.50;1.77;;;15.70;83.70;;;;;;5068617;28;20021;-76
2023/06/01 00:37:08;;;;;;;9.50;2.00;;;15.70;83.90;;;;;;5068506;28;20451;-74
2023/06/01 00:39:34;;;;;;;12.70;2.92;;;15.70;84.90;;;;;;5067545;28;20112;-74
2023/06/01 00:42:00;;;;;;;8.32;1.63;;;15.60;84.20;;;;;;5068502;28;20036;-75
2023/06/01 00:44:25;;;;;;;;;;;15.50;83.40;;;;;;5070263;28;20021;-74
2023/06/01 00:46:52;;;;;;;8.98;2.00;;;15.50;86.00;;;;;;5072249;28;19908;-75
2023/06/01 00:49:18;;;;;;;13.70;1.90;;;15.40;86.00;;;;;;5072226;28;20063;-75
2023/06/01 00:51:44;;;;;;;6.63;1.90;;;15.40;85.50;;;;;;5072213;28;20036;-75
2023/06/01 00:54:11;;;;;;;;;;;15.40;85.00;;;;;;5072676;28;20028;-75
2023/06/01 00:56:37;;;;;;;4.68;2.10;;;15.30;86.50;;;;;;5072222;28;19904;-74
2023/06/01 00:59:03;;;;;;;10.15;2.28;;;15.30;85.90;;;;;;5071587;28;20053;-75
2023/06/01 01:01:28;;;;;;;;;;;15.30;87.60;;;;;;5072575;28;20025;-75
2023/06/01 01:03:57;;;;;;;7.70;1.67;;;15.30;87.30;;;;;;5071907;28;20297;-74
2023/06/01 01:06:57;;;;;;;8.00;2.10;;;15.20;87.50;;;;;;5072093;28;20449;-75
2023/06/01 01:09:26;;;;;;;9.05;2.30;;;15.10;89.60;;;;;;5071756;28;20107;-74
2023/06/01 01:12:13;;;;;;;6.57;1.90;;;15.10;90.90;;;;;;5070510;28;20047;-74
2023/06/01 01:15:00;;;;;;;8.40;1.65;;;15.00;92.50;;;;;;5072059;28;20070;-75
2023/06/01 01:17:33;;;;;;;;;;;14.90;93.00;;;;;;5072094;28;20036;-75
2023/06/01 01:20:08;;;;;;;4.85;1.77;;;14.80;92.30;;;;;;5071800;28;19958;-76
2023/06/01 01:22:57;;;;;;;3.53;1.60;;;14.80;92.60;;;;;;5071916;28;20115;-74
2023/06/01 01:25:45;;;;;;;6.45;1.83;;;14.80;92.70;;;;;;5071866;28;20037;-75
2023/06/01 01:28:19;;;;;;;4.32;2.17;;;14.80;94.40;;;;;;5071559;28;20031;-75
2023/06/01 01:30:46;;;;;;;6.82;2.08;;;14.70;94.60;;;;;;5071614;28;20040;-75
2023/06/01 01:33:13;;;;;;;5.43;1.30;;;14.70;94.30;;;;;;5071172;28;20063;-74
2023/06/01 01:35:40;;;;;;;4.85;1.98;;;14.70;93.60;;;;;;5071652;28;20507;-74
2023/06/01 01:38:05;;;;;;;6.38;2.33;;;14.60;94.20;;;;;;5071478;28;20519;-74
2023/06/01 01:40:31;;;;;;;;;;;14.60;94.70;;;;;;5071958;28;20016;-73
2023/06/01 01:42:57;;;;;;;;;;;14.50;96.20;;;;;;5071866;28;19908;-76
2023/06/01 01:45:23;;;;;;;;;;;14.50;98.10;;;;;;5070457;28;19910;-73
2023/06/01 01:47:54;;;;;;;;;;;14.40;98.40;;;;;;5070416;28;19992;-74
2023/06/01 01:50:21;;;;;;;;;;;14.40;98.80;;;;;;5071583;28;19904;-76
2023/06/01 01:52:47;;;;;;;;;;;14.30;99.70;;;;;;5070312;28;19912;-74
2023/06/01 01:55:15;;;;;;;;;;;14.30;99.90;;;;;;5069846;28;19909;-74
2023/06/01 01:57:41;;;;;;;;;;;14.20;99.90;;;;;;5071362;28;19920;-74
2023/06/01 02:00:07;;;;;;;;;;;14.20;99.90;;;;;;5070233;28;20003;-75
2023/06/01 02:02:33;;;;;;;;;;;14.10;99.90;;;;;;5070118;28;19958;-74
2023/06/01 02:04:59;;;;;;;;;;;14.10;99.90;;;;;;5070953;28;19909;-74
2023/06/01 02:07:25;;;;;;;;;;;14.10;99.90;;;;;;5070041;28;19991;-73
2023/06/01 02:09:50;;;;;;;;;;;14.10;99.90;;;;;;5070238;28;19904;-74
2023/06/01 02:12:16;;;;;;;;;;;14.00;99.90;;;;;;5071216;28;19915;-74
2023/06/01 02:14:41;;;;;;;;;;;14.00;99.90;;;;;;5071282;28;19904;-74
2023/06/01 02:17:07;;;;;;;;;;;14.00;99.90;;;;;;5069760;28;20443;-75
2023/06/01 02:19:33;;;;;;;;;;;13.90;99.90;;;;;;5071075;28;19972;-74
2023/06/01 02:21:58;;;;;;;;;;;13.90;99.90;;;;;;5071014;28;19912;-75
2023/06/01 02:24:24;;;;;;;;;;;13.90;99.90;;;;;;5071077;28;19905;-76
2023/06/01 02:26:53;;;;;;;;;;;13.90;99.90;;;;;;5069651;28;20450;-75
2023/06/01 02:29:21;;;;;;;;;;;13.90;99.90;;;;;;5069487;28;19905;-74
2023/06/01 02:31:47;;;;;;;;;;;13.80;99.90;;;;;;5070894;28;19950;-74
2023/06/01 02:34:13;;;;;;;;;;;13.80;99.90;;;;;;5069600;28;19904;-75
2023/06/01 02:36:38;;;;;;;;;;;13.80;99.90;;;;;;5069731;28;19951;-74
2023/06/01 02:39:04;;;;;;;;;;;13.80;99.90;;;;;;5070663;28;20003;-75
2023/06/01 02:41:29;;;;;;;;;;;13.80;99.90;;;;;;5070896;28;20334;-74
2023/06/01 02:43:55;;;;;;;;;;;13.80;99.90;;;;;;5070859;28;20435;-75
2023/06/01 02:46:20;;;;;;;;;;;13.80;99.90;;;;;;5070696;28;20329;-75
2023/06/01 02:48:46;;;;;;;;;;;13.80;99.90;;;;;;5069445;28;20363;-75
2023/06/01 02:51:12;;;;;;;;;;;13.70;99.90;;;;;;5069281;28;20004;-75
2023/06/01 02:53:41;;;;;;;;;;;13.70;99.90;;;;;;5069173;28;19908;-75
2023/06/01 02:56:06;;;;;;;;;;;13.70;99.90;;;;;;5069280;28;19904;-75
2023/06/01 02:58:32;;;;;;;;;;;13.70;99.90;;;;;;5069020;28;19946;-75
2023/06/01 03:00:57;;;;;;;;;;;13.70;99.90;;;;;;5069457;28;20041;-76
2023/06/01 03:03:23;;;;;;;;;;;13.70;99.90;;;;;;5069150;28;19999;-75
2023/06/01 03:05:49;;;;;;;;;;;13.70;99.90;;;;;;5070883;28;19975;-75
2023/06/01 03:08:16;;;;;;;;;;;13.70;99.90;;;;;;5069817;28;19904;-74
2023/06/01 03:10:42;;;;;;;;;;;13.80;99.90;;;;;;5070525;28;20046;-75
2023/06/01 03:13:07;;;;;;;;;;;13.80;99.90;;;;;;5070027;28;20027;-75
2023/06/01 03:15:33;;;;;;;;;;;13.80;99.90;;;;;;5070339;28;19904;-75
2023/06/01 03:18:00;;;;;;;;;;;13.90;99.90;;;;;;5069628;28;19919;-73
2023/06/01 03:20:26;;;;;;;;;;;13.90;99.90;;;;;;5070061;28;20030;-75
2023/06/01 03:22:52;;;;;;;;;;;13.90;99.90;;;;;;5070150;28;20010;-74
2023/06/01 03:25:17;;;;;;;;;;;13.90;99.90;;;;;;5069932;28;19993;-75
2023/06/01 03:27:43;;;;;;;;;;;14.00;99.90;;;;;;5069829;28;20398;-75
2023/06/01 03:30:10;;;;;;;;;;;14.00;99.90;;;;;;5070203;28;20482;-74
2023/06/01 03:32:39;;;;;;;;;;;14.10;99.90;;;;;;5069961;28;19912;-74
2023/06/01 03:35:07;;;;;;;;;;;14.10;99.90;;;;;;5069817;28;20399;-74
2023/06/01 03:37:36;;;;;;;;;;;14.20;99.90;;;;;;5069981;28;19916;-75
2023/06/01 03:40:10;;;;;;;;;;;14.30;99.90;;;;;;5069948;28;20291;-75
2023/06/01 03:42:40;;;;;;;;;;;14.30;99.90;;;;;;5069782;28;19919;-75
2023/06/01 03:45:06;;;;;;;;;;;14.40;99.90;;;;;;5069692;28;19908;-74
2023/06/01 03:47:31;;;;;;;;;;;14.50;99.90;;;;;;5069776;28;19911;-74
2023/06/01 03:49:58;;;;;;;;;;;14.60;99.90;;;;;;5069429;28;19965;-74
2023/06/01 03:52:24;;;;;;;;;;;14.60;99.90;;;;;;5069560;28;19995;-75
2023/06/01 03:54:50;;;;;;;;;;;14.80;99.90;;;;;;5069857;28;19911;-75
2023/06/01 03:57:16;;;;;;;;;;;15.00;99.90;;;;;;5069321;28;20006;-75
2023/06/01 03:59:41;;;;;;;;;;;15.20;99.90;;;;;;5069482;28;19908;-75
2023/06/01 04:02:09;;;;;;;;;;;15.40;99.90;;;;;;5068282;28;19905;-76
2023/06/01 04:04:34;;;;;;;;;;;15.70;99.90;;;;;;5069371;28;20396;-76
2023/06/01 04:07:02;;;;;;;;;;;15.90;99.90;;;;;;5069438;28;19950;-74
2023/06/01 04:09:28;;;;;;;;;;;16.10;99.90;;;;;;5068104;28;19915;-75
2023/06/01 04:11:55;;;;;;;;;;;16.30;99.90;;;;;;5068149;28;19966;-74
2023/06/01 04:14:20;;;;;;;;;;;16.40;99.90;;;;;;5069286;28;19904;-75
2023/06/01 04:16:46;;;;;;;;;;;16.50;99.90;;;;;;5068015;28;20373;-76
2023/06/01 04:19:12;;;;;;;;;;;16.60;99.90;;;;;;5069954;28;19920;-74
2023/06/01 04:21:37;;;;;;;;;;;16.70;99.90;;;;;;5072096;28;20452;-76
2023/06/01 04:24:03;;;;;;;;;;;16.80;99.90;;;;;;5072197;28;19909;-76
2023/06/01 04:26:31;;;;;;;;;;;16.90;99.90;;;;;;5073438;28;19991;-75
2023/06/01 04:28:58;;;;;;;;;;;17.10;99.20;;;;;;5071878;28;20321;-75
2023/06/01 04:31:24;;;;;;;;;;;17.20;99.90;;;;;;5071923;28;19940;-75
2023/06/01 04:33:52;;;;;;;;;;;17.20;99.90;;;;;;5073265;28;19935;-76
2023/06/01 04:36:21;;;;;;;;;;;17.40;99.90;;;;;;5073097;28;19915;-75
2023/06/01 04:38:50;;;;;;;;;;;17.50;98.70;;;;;;5071679;28;19943;-76
2023/06/01 04:41:17;;;;;;;;;;;17.70;99.30;;;;;;5071622;28;19954;-75
2023/06/01 04:43:42;;;;;;;;;;;17.90;99.50;;;;;;5072683;28;19944;-76
2023/06/01 04:46:08;;;;;;;;;;;18.00;99.90;;;;;;5072566;28;19963;-75
2023/06/01 04:48:33;;;;;;;;;;;18.20;99.90;;;;;;5072757;28;19942;-75
2023/06/01 04:50:59;;;;;;;;;;;18.30;98.80;;;;;;5072609;28;20373;-75
2023/06/01 04:53:25;;;;;;;;;;;18.40;98.60;;;;;;5072661;28;19946;-75
2023/06/01 04:55:50;;;;;;;;;;;18.50;98.60;;;;;;5072401;28;19911;-75
2023/06/01 04:58:16;;;;;;;;;;;18.60;97.00;;;;;;5072137;28;19920;-74
2023/06/01 05:00:42;;;;;;;;;;;18.60;92.80;;;;;;5072530;28;20281;-74
2023/06/01 05:03:07;;;;;;;;;;;18.70;93.20;;;;;;5072570;28;19931;-75
2023/06/01 05:05:33;;;;;;;;;;;18.80;90.20;;;;;;5072730;28;19939;-76
2023/06/01 05:07:59;;;;;;;;;;;18.90;90.20;;;;;;5072435;28;19915;-74
2023/06/01 05:10:24;;;;;;;;;;;19.10;85.40;;;;;;5071001;28;20424;-75
2023/06/01 05:12:50;;;;;;;;;;;19.30;82.90;;;;;;5072576;28;19931;-76
2023/06/01 05:15:16;;;;;;;;;;;19.50;80.50;;;;;;5072039;28;19927;-77
2023/06/01 05:17:42;;;;;;;;;;;19.80;77.30;;;;;;5072200;28;20292;-75
2023/06/01 05:20:08;;;;;;;;;;;20.00;73.40;;;;;;5071930;28;19910;-75
2023/06/01 05:22:35;;;;;;;;;;;20.20;74.20;;;;;;5072146;28;19908;-75
2023/06/01 05:25:01;;;;;;;;;;;20.40;73.30;;;;;;5070824;28;19910;-73
2023/06/01 05:27:27;;;;;;;;;;;20.40;69.20;;;;;;5070829;28;19991;-73
2023/06/01 05:29:52;;;;;;;;;;;20.50;68.10;;;;;;5070168;28;19905;-74
2023/06/01 05:32:18;;;;;;;;;;;20.60;67.70;;;;;;5071984;28;20560;-75
2023/06/01 05:34:43;;;;;;;;;;;20.70;66.00;;;;;;5070785;28;20624;-73
2023/06/01 05:37:09;;;;;;;;;;;20.80;67.50;;;;;;5070366;28;20273;-74
2023/06/01 05:39:34;;;;;;;;;;;21.00;68.30;;;;;;5072117;28;20450;-75
2023/06/01 05:42:00;;;;;;;;;;;21.20;69.30;;;;;;5070760;28;19904;-75
2023/06/01 05:44:26;;;;;;;;;;;21.50;69.10;;;;;;5071740;28;19904;-74
2023/06/01 05:46:52;;;;;;;;;;;21.90;67.60;;;;;;5071834;28;19911;-74
2023/06/01 05:49:18;;;;;;;;;;;22.30;64.90;;;;;;5071665;28;20470;-76
2023/06/01 05:51:46;;;;;;;;;;;22.70;62.90;;;;;;5071612;28;19940;-75
2023/06/01 05:54:11;;;;;;;;;;;23.20;62.20;;;;;;5071852;28;19911;-75
2023/06/01 05:56:37;;;;;;;;;;;23.90;60.40;;;;;;5072030;28;19905;-75
2023/06/01 05:59:03;;;;;;;;;;;25.10;57.90;;;;;;5071131;28;19920;-74
2023/06/01 06:01:29;;;;;;;;;;;26.50;54.00;;;;;;5070286;28;20360;-77
2023/06/01 06:03:55;;;;;;;;;;;27.80;50.90;;;;;;5071774;28;19908;-78
2023/06/01 06:06:22;;;;;;;;;;;28.90;46.00;;;;;;5071294;28;20370;-75
2023/06/01 06:08:47;;;;;;;;;;;29.60;45.00;;;;;;5071415;28;20404;-75
2023/06/01 06:11:13;;;;;;;;;;;30.40;44.40;;;;;;5070361;28;19908;-75
2023/06/01 06:13:38;;;;;;;;;;;31.10;42.10;;;;;;5071057;28;19908;-75
2023/06/01 06:16:04;;;;;;;;;;;31.60;40.70;;;;;;5071496;28;20380;-74
2023/06/01 06:18:30;;;;;;;;;;;31.90;41.10;;;;;;5071249;28;19956;-74
2023/06/01 06:20:55;;;;;;;;;;;32.10;40.60;;;;;;5069928;28;19912;-75
2023/06/01 06:23:21;;;;;;;;;;;32.30;40.70;;;;;;5070853;28;19931;-75
2023/06/01 06:25:48;;;;;;;;;;;32.50;38.90;;;;;;5071050;28;20007;-76
2023/06/01 06:28:14;;;;;;;;;;;32.80;37.90;;;;;;5070830;28;19934;-74
2023/06/01 06:30:39;;;;;;;;;;;33.00;37.30;;;;;;5070730;28;19916;-75
2023/06/01 06:33:05;;;;;;;;;;;33.10;36.70;;;;;;5070597;28;20288;-76
2023/06/01 06:35:31;;;;;;;;;;;33.10;36.30;;;;;;5070875;28;19915;-75
2023/06/01 06:37:56;;;;;;;;;;;33.20;35.90;;;;;;5070799;28;20007;-74
2023/06/01 06:40:22;;;;;;;;;;;33.30;35.20;;;;;;5070901;28;19908;-76
2023/06/01 06:42:49;;;;;;;;;;;33.50;35.40;;;;;;5070420;28;20304;-74
2023/06/01 06:45:14;;;;;;;;;;;33.80;35.30;;;;;;5070735;28;20467;-75
2023/06/01 06:47:41;;;;;;;;;;;33.70;34.90;;;;;;5069577;28;19951;-76
2023/06/01 06:50:07;;;;;;;;;;;33.50;34.10;;;;;;5070625;28;19908;-75
2023/06/01 06:52:33;;;;;;;;;;;33.50;35.20;;;;;;5070563;28;19910;-75
2023/06/01 06:54:58;;;;;;;;;;;33.90;33.10;;;;;;5070357;28;19904;-75
2023/06/01 06:57:24;;;;;;;;;;;34.00;33.00;;;;;;5070040;28;19921;-75
2023/06/01 06:59:49;;;;;;;;;;;34.20;31.90;;;;;;5069006;28;19904;-75
2023/06/01 07:02:15;;;;;;;;;;;33.90;33.20;;;;;;5070212;28;19916;-74
2023/06/01 07:04:41;;;;;;;;;;;34.20;32.20;;;;;;5070308;28;19908;-74
2023/06/01 07:07:07;;;;;;;;;;;34.10;32.70;;;;;;5070115;28;19961;-75
2023/06/01 07:09:33;;;;;;;;;;;34.00;33.10;;;;;;5070150;28;19905;-74
2023/06/01 07:11:58;;;;;;;;;;;33.90;34.30;;;;;;5070152;28;19909;-75
2023/06/01 07:14:24;;;;;;;;;;;33.90;34.00;;;;;;5070220;28;20007;-74
2023/06/01 07:16:50;;;;;;;;;;;33.90;33.80;;;;;;5068834;28;20288;-75
2023/06/01 07:19:16;;;;;;;;;;;34.00;32.80;;;;;;5069861;28;19947;-74
2023/06/01 07:21:42;;;;;;;;;;;34.10;34.40;;;;;;5070157;28;19990;-75
2023/06/01 07:24:08;;;;;;;;;;;33.90;34.80;;;;;;5068806;28;19978;-74
2023/06/01 07:26:33;;;;;;;;;;;34.00;33.50;;;;;;5069940;28;19905;-74
2023/06/01 07:28:59;;;;;;;;;;;34.20;33.70;;;;;;5069831;28;19908;-74
2023/06/01 07:31:25;;;;;;;;;;;34.00;34.00;;;;;;5070050;28;20415;-75
2023/06/01 07:33:51;;;;;;;;;;;33.90;34.00;;;;;;5070022;28;19915;-75
2023/06/01 07:36:23;;;;;;;;;;;34.00;33.10;;;;;;5068601;28;19913;-74
2023/06/01 07:38:49;;;;;;;;;;;34.20;33.60;;;;;;5069716;28;19935;-75
2023/06/01 07:41:14;;;;;;;;;;;34.10;32.90;;;;;;5069643;28;19908;-74
2023/06/01 07:43:40;;;;;;;;;;;34.20;33.50;;;;;;5068364;28;20419;-74
2023/06/01 07:46:05;;;;;;;;;;;34.10;33.50;;;;;;5069748;28;19987;-74
2023/06/01 07:48:37;;;;;;;;;;;34.00;33.80;;;;;;5069742;28;20417;-74
2023/06/01 07:51:03;;;;;;;;;;;34.10;32.80;;;;;;5069588;28;19915;-74
2023/06/01 07:53:29;;;;;;;;;;;34.30;32.40;;;;;;5069506;28;19908;-74
2023/06/01 07:55:55;;;;;;;;;;;34.40;33.10;;;;;;5069689;28;20373;-75
2023/06/01 07:58:20;;;;;;;;;;;34.10;32.50;;;;;;5069182;28;20057;-74
2023/06/01 08:00:46;;;;;;;;;;;33.90;34.40;;;;;;5069643;28;20002;-73
2023/06/01 08:03:11;;;;;;;;;;;33.80;34.00;;;;;;5069339;28;19908;-75
2023/06/01 08:05:37;;;;;;;;;;;33.80;33.70;;;;;;5069396;28;19922;-75
2023/06/01 08:08:03;;;;;;;;;;;33.40;33.20;;;;;;5069962;28;20630;-73
2023/06/01 08:10:29;;;;;;;;;;;33.40;34.30;;;;;;5069567;28;20280;-75
2023/06/01 08:12:57;;;;;;;;;;;33.50;33.60;;;;;;5069285;28;19915;-75
2023/06/01 08:15:25;;;;;;;;;;;33.30;33.40;;;;;;5069302;28;19908;-73
2023/06/01 08:17:51;;;;;;;;;;;33.20;32.90;;;;;;5069380;28;20409;-74
2023/06/01 08:20:21;;;;;;;;;;;33.00;34.30;;;;;;5068035;28;20042;-73
2023/06/01 08:22:47;;;;;;;;;;;33.10;33.20;;;;;;5067983;28;19990;-76
2023/06/01 08:25:14;;;;;;;;;;;33.00;33.90;;;;;;5068323;28;20361;-75
2023/06/01 08:27:40;;;;;;;;;;;32.90;34.50;;;;;;5069393;28;20235;-74
2023/06/01 08:30:06;;;;;;;;;;;32.50;36.50;;;;;;5069329;28;20350;-74
2023/06/01 08:32:32;;;;;;;;;;;32.90;35.60;;;;;;5067964;28;19908;-74
2023/06/01 08:34:58;;;;;;;;;;;32.80;36.30;;;;;;5069331;28;19905;-75
2023/06/01 08:37:23;;;;;;;;;;;33.10;36.20;;;;;;5069163;28;19957;-74
2023/06/01 08:39:49;;;;;;;;;;;33.20;34.70;;;;;;5067865;28;19909;-75
2023/06/01 08:42:21;;;;;;;;;;;33.40;33.90;;;;;;5069476;28;19904;-74
2023/06/01 08:44:47;;;;;;;;;;;33.60;34.80;;;;;;5067792;28;19939;-75
2023/06/01 08:47:13;;;;;;;;;;;33.70;33.70;;;;;;5068987;28;19908;-75
2023/06/01 08:49:40;;;;;;;;;;;33.60;34.10;;;;;;5069056;28;19911;-74
2023/06/01 08:52:18;;;;;;;;;;;33.40;34.20;;;;;;5069218;28;19912;-74
2023/06/01 08:54:44;;;;;;;;;;;33.30;35.40;;;;;;5069183;28;20021;-74
2023/06/01 08:57:10;;;;;;;;;;;33.70;35.60;;;;;;5069220;28;19959;-74
2023/06/01 08:59:36;;;;;;;;;;;33.70;35.20;;;;;;5069046;28;20396;-75
2023/06/01 09:02:02;;;;;;;;;;;33.60;33.50;;;;;;5068966;28;19916;-74
2023/06/01 09:04:30;;;;;;;;;;;33.50;34.90;;;;;;5069119;28;19908;-74
2023/06/01 09:06:56;;;;;;;;;;;33.60;35.70;;;;;;5072464;28;19908;-75
2023/06/01 09:09:22;;;;;;;;;;;33.80;35.90;;;;;;5072439;28;19908;-75
2023/06/01 09:11:47;;;;;;;;;;;33.90;36.40;;;;;;5072406;28;20288;-73
2023/06/01 09:14:23;;;;;;;;;;;34.20;35.70;;;;;;5072465;28;20376;-74
2023/06/01 09:16:49;;;;;;;;;;;34.30;35.30;;;;;;5070997;28;19904;-73
2023/06/01 09:19:15;;;;;;;;;;;34.30;35.20;;;;;;5072366;28;19920;-75
2023/06/01 09:21:55;;;;;;;;;;;34.50;35.70;;;;;;5072307;28;19948;-74
2023/06/01 09:24:22;;;;;;;;;;;34.70;36.40;;;;;;5072367;28;19908;-75
2023/06/01 09:26:48;;;;;;;;;;;34.80;35.50;;;;;;5071009;28;19904;-75
2023/06/01 09:29:13;;;;;;;;;;;34.70;34.00;;;;;;5072180;28;20407;-74
2023/06/01 09:31:42;;;;;;;;;;;34.60;34.00;;;;;;5072358;28;19908;-74
2023/06/01 09:34:08;;;;;;;;;;;34.80;35.60;;;;;;5071436;28;19931;-74
2023/06/01 09:36:35;;;;;;;;;;;34.50;34.20;;;;;;5070820;28;19908;-74
2023/06/01 09:39:02;;;;;;;;;;;34.40;33.40;;;;;;5071785;28;20339;-74
2023/06/01 09:41:43;;;;;;;;;;;34.50;34.70;;;;;;5071935;28;19995;-74
2023/06/01 09:44:09;;;;;;;;;;;34.30;34.00;;;;;;5071550;28;19947;-74
2023/06/01 09:46:45;;;;;;;;;;;34.20;33.90;;;;;;5071826;28;19947;-72
2023/06/01 09:49:17;;;;;;;;;;;34.50;35.70;;;;;;5071460;28;19962;-74
2023/06/01 09:51:43;;;;;;;;;;;34.30;35.80;;;;;;5071758;28;19908;-74
2023/06/01 09:54:08;;;;;;;;;;;33.90;35.20;;;;;;5071570;28;19920;-74
2023/06/01 09:56:44;;;;;;;;;;;34.10;34.90;;;;;;5071733;28;20425;-73
2023/06/01 09:59:09;;;;;;;;;;;34.30;34.60;;;;;;5070770;28;20019;-72
2023/06/01 10:01:35;;;;;;;;;;;33.60;36.20;;;;;;5069625;28;20011;-73
2023/06/01 10:04:01;;;;;;;;;;;33.20;37.00;;;;;;5071421;28;20031;-73
2023/06/01 10:06:28;;;;;;;;;;;32.70;39.70;;;;;;5071494;28;19916;-73
2023/06/01 10:08:55;;;;;;;;;;;32.40;37.50;;;;;;5071329;28;19973;-74
2023/06/01 10:11:20;;;;;;;;;;;31.70;39.50;;;;;;5071203;28;20293;-73
2023/06/01 10:13:46;;;;;;;;;;;31.50;40.00;;;;;;5071336;28;20027;-75
2023/06/01 10:16:12;;;;;;;;;;;31.20;40.20;;;;;;5071186;28;19904;-74
2023/06/01 10:18:38;;;;;;;;;;;31.00;42.60;;;;;;5070780;28;19916;-76
2023/06/01 10:21:06;;;;;;;;;;;30.70;41.20;;;;;;5070970;28;19915;-74
2023/06/01 10:23:31;;;;;;;;;;;30.60;42.40;;;;;;5069861;28;19904;-73
2023/06/01 10:25:58;;;;;;;;;;;30.40;41.20;;;;;;5069706;28;19908;-74
2023/06/01 10:28:25;;;;;;;;;;;30.30;42.00;;;;;;5070478;28;19944;-74
2023/06/01 10:31:10;;;;;;;;;;;30.20;41.00;;;;;;5070625;28;19912;-75
2023/06/01 10:33:55;;;;;;;;;;;29.90;43.00;;;;;;5069602;28;20324;-74
2023/06/01 10:36:21;;;;;;;;;;;29.80;42.80;;;;;;5070745;28;19970;-75
2023/06/01 10:38:46;;;;;;;;;;;29.60;42.00;;;;;;5070795;28;20013;-75
2023/06/01 10:41:26;;;;;;;;;;;29.30;42.60;;;;;;5069165;28;19908;-74
2023/06/01 10:43:51;;;;;;;;;;;29.20;42.50;;;;;;5069412;28;20049;-74
2023/06/01 10:46:43;;;;;;;;;;;29.20;43.30;;;;;;5069351;28;20003;-74
2023/06/01 10:49:09;;;;;;;;;;;29.10;43.90;;;;;;5065974;28;20304;-74
2023/06/01 10:51:35;;;;;;;;;;;28.90;41.30;;;;;;5070503;28;19915;-75
2023/06/01 10:54:19;;;;;;;;;;;28.70;43.00;;;;;;5068193;28;19908;-73
2023/06/01 10:56:45;;;;;;;;;;;28.50;44.70;;;;;;5070090;28;19908;-75
2023/06/01 10:59:11;;;;;;;;;;;28.50;45.00;;;;;;5069957;28;20400;-75
2023/06/01 11:01:37;;;;;;;;;;;28.50;45.10;;;;;;5069106;28;19908;-75
2023/06/01 11:04:03;;;;;;;;;;;28.50;46.00;;;;;;5068370;28;19904;-74
2023/06/01 11:06:39;;;;;;;;;;;28.50;46.30;;;;;;5070053;28;19905;-74
2023/06/01 11:09:05;;;;;;;;;;;28.50;46.00;;;;;;5070595;28;19908;-72
2023/06/01 11:11:54;;;;;;;;;;;28.60;45.30;;;;;;5068643;28;19908;-72
2023/06/01 11:14:29;;;;;;;;;;;28.60;45.10;;;;;;5070066;28;19904;-72
2023/06/01 11:16:55;;;;;;;;;;;28.50;45.00;;;;;;5068805;28;19908;-73
2023/06/01 11:19:24;;;;;;;;;;;28.50;44.80;;;;;;5068775;28;20383;-74
2023/06/01 11:21:54;;;;;;;;;;;28.50;45.40;;;;;;5070353;28;20368;-73
2023/06/01 11:24:20;;;;;;;;;;;28.50;45.70;;;;;;5070024;28;19908;-73
2023/06/01 11:26:49;;;;;;;;;;;28.40;45.30;;;;;;5070071;28;19957;-73
2023/06/01 11:29:16;;;;;;;;;;;28.50;43.60;;;;;;5069424;28;19912;-73
2023/06/01 11:31:54;;;;;;;;;;;28.50;45.30;;;;;;5069823;28;20372;-74
2023/06/01 11:34:28;;;;;;;;;;;28.60;45.60;;;;;;5069988;28;20006;-73
2023/06/01 11:36:55;;;;;;;;;;;28.50;44.20;;;;;;5068495;28;20361;-74
2023/06/01 11:39:24;;;;;;;;;;;28.50;46.40;;;;;;5069511;28;19912;-74
2023/06/01 11:42:05;;;;;;;;;;;28.60;46.20;;;;;;5069673;28;19931;-74
2023/06/01 11:44:30;;;;;;;;;;;28.60;44.70;;;;;;5070069;28;20150;-75
2023/06/01 11:46:56;;;;;;;;;;;28.70;45.20;;;;;;5068159;28;20561;-75
2023/06/01 11:49:23;;;;;;;;;;;28.60;44.90;;;;;;5069449;28;19915;-74
2023/06/01 11:51:50;;;;;;;;;;;28.60;44.40;;;;;;5068253;28;19905;-73
2023/06/01 11:54:16;;;;;;;;;;;28.50;46.10;;;;;;5069725;28;20339;-75
2023/06/01 11:56:42;;;;;;;;;;;28.60;44.60;;;;;;5069465;28;20373;-75
2023/06/01 11:59:09;;;;;;;;;;;28.60;46.50;;;;;;5068943;28;20288;-75
2023/06/01 12:01:36;;;;;;;;;;;28.60;45.50;;;;;;5069747;28;19908;-72
2023/06/01 12:04:03;;;;;;;;;;;28.60;46.00;;;;;;5069453;28;19908;-74
2023/06/01 12:06:28;;;;;;;;;;;28.60;45.60;;;;;;5068145;28;20291;-74
2023/06/01 12:08:57;;;;;;;;;;;28.60;45.20;;;;;;5069575;28;19911;-73
2023/06/01 12:11:27;;;;;;;;;;;28.60;44.60;;;;;;5069349;28;20266;-73
2023/06/01 12:13:55;;;;;;;;;;;28.50;43.90;;;;;;5069662;28;19950;-73
2023/06/01 12:16:22;;;;;;;;;;;28.50;44.50;;;;;;5068128;28;20262;-73
2023/06/01 12:18:47;;;;;;;;;;;28.50;46.00;;;;;;5068076;28;20341;-73
2023/06/01 12:21:13;;;;;;;;;;;28.60;45.90;;;;;;5068125;28;19908;-72
2023/06/01 12:23:39;;;;;;;;;;;28.60;45.40;;;;;;5069321;28;19951;-74
2023/06/01 12:26:06;;;;;;;;;;;28.60;44.30;;;;;;5069303;28;19952;-73
2023/06/01 12:28:54;;;;;;;;;;;28.50;44.90;;;;;;5069126;28;19938;-73
2023/06/01 12:31:20;;;;;;;;;;;28.50;43.90;;;;;;5069190;28;19909;-73
2023/06/01 12:33:48;;;;;;;;;;;28.50;45.20;;;;;;5069153;28;19914;-72
2023/06/01 12:36:31;;;;;;;;;;;28.50;45.20;;;;;;5069260;28;19911;-72
2023/06/01 12:38:58;;;;;;;;;;;28.60;45.80;;;;;;5068909;28;20411;-73
2023/06/01 12:41:24;;;;;;;;;;;28.50;46.40;;;;;;5072029;28;19921;-73
2023/06/01 12:43:50;;;;;;;;;;;28.50;46.10;;;;;;5072817;28;19908;-73
2023/06/01 12:46:19;;;;;;;;;;;28.60;43.40;;;;;;5072680;28;19966;-74
2023/06/01 12:48:45;;;;;;;;;;;28.60;45.30;;;;;;5073015;28;19971;-73
2023/06/01 12:51:11;;;;;;;;;;;28.70;46.90;;;;;;5072431;28;20434;-74
2023/06/01 12:53:36;;;;;;;;;;;28.80;44.80;;;;;;5071300;28;19905;-73
2023/06/01 12:56:03;;;;;;;;;;;28.80;44.90;;;;;;5071101;28;20356;-73
2023/06/01 12:58:28;;;;;;;;;;;28.90;44.80;;;;;;5072557;28;20295;-73
2023/06/01 13:00:54;;;;;;;;;;;28.80;45.60;;;;;;5072852;28;19912;-73
2023/06/01 13:03:21;;;;;;;;;;;28.90;45.50;;;;;;5073142;28;19908;-74
2023/06/01 13:05:49;;;;;;;;;;;29.00;45.80;;;;;;5072587;28;19943;-74
2023/06/01 13:08:17;;;;;;;;;;;28.90;46.00;;;;;;5072939;28;19908;-73
2023/06/01 13:10:43;;;;;;;;;;;28.80;46.20;;;;;;5072776;28;19908;-74
2023/06/01 13:13:10;;;;;;;;;;;28.80;46.30;;;;;;5072255;28;20323;-73
2023/06/01 13:15:38;;;;;;;;;;;28.60;44.40;;;;;;5072485;28;20003;-74
2023/06/01 13:18:04;;;;;;;;;;;28.50;44.60;;;;;;5071145;28;19983;-74
2023/06/01 13:20:30;;;;;;;;;;;28.40;45.60;;;;;;5068265;28;19999;-74
2023/06/01 13:22:55;;;;;;;;;;;28.50;45.80;;;;;;5051982;28;20371;-74
2023/06/01 13:25:21;;;;;;;;;;;28.50;46.20;;;;;;5052061;28;19908;-75
2023/06/01 13:27:46;;;;;;;;;;;28.50;46.10;;;;;;5060295;28;19904;-74
2023/06/01 13:30:13;;;;;;;;;;;28.50;44.70;;;;;;5052083;28;19909;-73
2023/06/01 13:32:38;;;;;;;;;;;28.50;46.40;;;;;;5052220;28;19966;-74
2023/06/01 13:35:04;;;;;;;;;;;28.60;47.60;;;;;;5051962;28;19940;-74
2023/06/01 13:37:30;;;;;;;;;;;28.60;46.40;;;;;;5052226;28;19981;-74
2023/06/01 13:39:55;;;;;;;;;;;28.70;46.20;;;;;;5050720;28;19917;-74
2023/06/01 13:42:21;;;;;;;;;;;28.60;45.00;;;;;;5050740;28;19962;-73
2023/06/01 13:44:47;;;;;;;;;;;28.50;46.10;;;;;;5050607;28;19999;-73
2023/06/01 13:47:16;;;;;;;;;;;28.60;46.60;;;;;;5051769;28;19908;-76
2023/06/01 13:49:42;;;;;;;;;;;28.50;44.50;;;;;;5051849;28;19943;-74
2023/06/01 13:52:09;;;;;;;;;;;28.30;45.90;;;;;;5051568;28;19904;-73
2023/06/01 13:54:34;;;;;;;;;;;28.30;46.00;;;;;;5051610;28;20094;-73
2023/06/01 13:57:02;;;;;;;;;;;28.30;46.30;;;;;;5049964;28;20114;-73
2023/06/01 13:59:30;;;;;;;;;;;28.30;46.90;;;;;;5051849;28;19923;-73
2023/06/01 14:01:58;;;;;;;;;;;28.20;46.90;;;;;;5051583;28;20039;-73
2023/06/01 14:04:24;;;;;;;;;;;28.10;46.30;;;;;;5045828;28;19909;-73
2023/06/01 14:06:52;;;;;;;;;;;28.00;45.80;;;;;;5050539;28;20376;-75
2023/06/01 14:09:18;;;;;;;;;;;28.00;46.50;;;;;;5049867;28;19911;-74